EST,Max TemperatureF,Mean TemperatureF,Min TemperatureF,Max Dew PointF,MeanDew PointF,Min DewpointF,Max Humidity, Mean Humidity, Min Humidity, Max Sea Level PressureIn, Mean Sea Level PressureIn, Min Sea Level PressureIn, Max VisibilityMiles, Mean VisibilityMiles, Min VisibilityMiles, Max Wind SpeedMPH, Mean Wind SpeedMPH, Max Gust SpeedMPH,PrecipitationIn, CloudCover, Events, WindDirDegrees
2013-2-1,26,20,15,14,5,0,64,49,37,30.02,29.73,29.49,10,10,10,20,14,37,0.00,3,,268
2013-2-2,23,16,10,12,4,0,74,55,39,30.15,30.06,29.99,10,10,10,13,6,18,0.00,3,,246
2013-2-3,26,19,12,16,11,9,86,66,47,30.00,29.85,29.68,10,10,10,12,2,,0.00,6,,62
2013-2-4,26,20,15,16,3,-6,80,49,28,29.84,29.71,29.66,10,10,4,25,8,37,0.00,3,,263
2013-2-5,26,16,6,9,1,-4,72,50,31,29.98,29.92,29.84,10,10,10,14,5,17,0.00,1,,273
2013-2-6,35,25,15,19,9,-9,86,57,30,30.27,30.00,29.89,10,9,3,21,4,32,0.00,4,,266
2013-2-7,23,16,10,1,-6,-11,49,38,24,30.49,30.41,30.25,10,10,10,17,7,21,0.00,2,,268
2013-2-8,17,14,10,10,6,-6,86,71,38,30.47,30.21,29.80,10,3,0,22,11,36,0.00,8,,53
2013-2-9,19,16,12,16,7,-2,86,68,49,30.16,29.89,29.73,10,5,0,16,11,28,0.01,5,,322
2013-2-10,33,18,3,7,-1,-9,79,46,23,30.35,30.29,30.17,10,10,3,15,6,23,0.00,0,,244
2013-2-11,30,18,6,28,15,0,93,85,67,30.30,29.94,29.59,10,5,0,6,1,,0.24,6,,264
2013-2-12,41,34,28,30,26,21,93,67,53,29.80,29.64,29.56,10,10,5,20,9,33,0.00,7,,254
2013-2-13,39,32,24,21,18,16,80,60,41,29.82,29.77,29.71,10,10,10,14,6,23,0.00,4,,255
2013-2-14,39,29,19,21,17,16,86,67,41,29.95,29.85,29.69,10,10,10,15,2,21,0.00,4,,266
2013-2-15,46,32,17,27,20,12,86,65,39,29.95,29.91,29.86,10,10,9,14,2,20,0.00,4,,228
2013-2-16,37,30,24,25,17,1,80,55,36,29.93,29.87,29.73,10,10,9,10,4,,0.00,6,,288
2013-2-17,24,18,12,10,2,-2,73,50,36,29.72,29.50,29.36,10,8,2,29,11,44,0.00,6,,292
2013-2-18,26,17,8,0,-5,-9,62,41,21,30.05,29.88,29.61,10,10,10,22,13,37,0.00,1,,274
2013-2-19,39,27,15,30,9,-8,87,48,27,30.11,29.91,29.54,10,9,3,16,6,21,0.03,3,,23
2013-2-20,33,28,23,30,19,10,87,66,47,29.69,29.57,29.48,10,9,2,22,9,30,0.02,7,,250
2013-2-21,24,20,17,12,8,3,68,58,46,30.18,29.87,29.69,10,10,4,17,10,25,0.00,5,,275
2013-2-22,37,24,10,19,15,7,86,61,38,30.38,30.30,30.20,10,10,10,9,3,,0.00,1,,136
2013-2-23,33,30,26,30,25,19,93,80,64,30.29,30.15,29.96,10,6,0,6,1,,0.03,8,,46
2013-2-24,32,30,28,28,28,27,93,91,86,29.95,29.82,29.74,10,2,0,9,6,,0.17,8,,53
2013-2-25,39,29,19,30,26,16,93,82,65,30.21,30.06,29.89,10,8,0,8,1,,0.00,7,,256
2013-2-26,37,34,30,28,28,25,93,79,65,30.32,30.27,30.18,10,9,3,10,3,,0.05,7,,69
2013-2-27,33,32,30,30,28,25,93,85,75,30.18,29.92,29.64,10,4,0,28,10,38,0.05,7,,54
2013-2-28,42,36,30,32,29,27,93,83,65,29.60,29.57,29.53,10,10,7,13,5,18,0.00,5,,39